BAD234 KHPN-KPHL
Flight info
| Callsign | BAD234 |
|---|---|
| Flight time | N/A |
| Altitude | 16000 |
| Route | JFK V16 VCN V184 OOD |
| Aircraft | RJ70/M-SDFGIRWY/LB1 |
Departure
| Time | 2026-05-05 03:12 |
|---|---|
| Airport | Westchester County Airport (KHPN) |
Arrival
| Time | N/A |
|---|---|
| Airport | Philadelphia International Airport (KPHL) |
| Time | Latitude | Longitude | Altitude | Speed | Heading |
|---|---|---|---|---|---|
| 2026-05-05 02:36 | 41.06381 | -73.71243 | 408 ft | 0 kts | 191° |
| 2026-05-05 03:07 | 41.06389 | -73.71238 | 408 ft | 2 kts | 254° |
| 2026-05-05 03:07 | 41.06382 | -73.71228 | 405 ft | 0 kts | 18° |
| 2026-05-05 03:07 | 41.06387 | -73.71227 | 409 ft | 4 kts | 11° |
| 2026-05-05 03:08 | 41.06443 | -73.71226 | 412 ft | 11 kts | 2° |
| 2026-05-05 03:08 | 41.06502 | -73.71197 | 418 ft | 9 kts | 74° |
| 2026-05-05 03:08 | 41.06483 | -73.71062 | 411 ft | 20 kts | 103° |
| 2026-05-05 03:08 | 41.06451 | -73.70852 | 406 ft | 26 kts | 91° |
| 2026-05-05 03:09 | 41.06454 | -73.70717 | 402 ft | 7 kts | 3° |
| 2026-05-05 03:09 | 41.06502 | -73.70721 | 400 ft | 10 kts | 355° |
| 2026-05-05 03:09 | 41.06600 | -73.70766 | 404 ft | 21 kts | 328° |
| 2026-05-05 03:09 | 41.06729 | -73.70865 | 406 ft | 21 kts | 332° |
| 2026-05-05 03:10 | 41.06844 | -73.70951 | 408 ft | 19 kts | 328° |
| 2026-05-05 03:10 | 41.06977 | -73.71057 | 406 ft | 26 kts | 330° |
| 2026-05-05 03:10 | 41.07159 | -73.71193 | 423 ft | 34 kts | 330° |
| 2026-05-05 03:10 | 41.07350 | -73.71340 | 425 ft | 29 kts | 329° |
| 2026-05-05 03:11 | 41.07487 | -73.71438 | 440 ft | 14 kts | 359° |
| 2026-05-05 03:11 | 41.07537 | -73.71353 | 433 ft | 12 kts | 72° |
| 2026-05-05 03:11 | 41.07531 | -73.71302 | 435 ft | 3 kts | 149° |
| 2026-05-05 03:11 | 41.07515 | -73.71291 | 435 ft | 8 kts | 150° |
| 2026-05-05 03:12 | 41.07243 | -73.71087 | 426 ft | 81 kts | 150° |
| 2026-05-05 03:12 | 41.06572 | -73.70579 | 490 ft | 132 kts | 150° |
| 2026-05-05 03:12 | 41.05755 | -73.69928 | 1080 ft | 142 kts | 152° |
| 2026-05-05 03:12 | 41.04876 | -73.69210 | 1668 ft | 162 kts | 156° |
| 2026-05-05 03:13 | 41.03796 | -73.68307 | 2065 ft | 198 kts | 155° |
| 2026-05-05 03:13 | 41.02549 | -73.67280 | 2699 ft | 229 kts | 155° |
| 2026-05-05 03:13 | 41.01056 | -73.66081 | 2907 ft | 263 kts | 156° |
| 2026-05-05 03:13 | 40.99399 | -73.65461 | 2976 ft | 240 kts | 189° |
| 2026-05-05 03:14 | 40.97914 | -73.66296 | 3018 ft | 235 kts | 224° |
| 2026-05-05 03:14 | 40.97146 | -73.68189 | 3024 ft | 241 kts | 258° |
| 2026-05-05 03:14 | 40.97404 | -73.70404 | 3030 ft | 255 kts | 291° |
| 2026-05-05 03:14 | 40.98537 | -73.72261 | 3038 ft | 264 kts | 309° |
| 2026-05-05 03:15 | 40.99827 | -73.73984 | 3019 ft | 262 kts | 308° |
| 2026-05-05 03:15 | 41.01128 | -73.75683 | 3015 ft | 263 kts | 310° |
| 2026-05-05 03:15 | 41.02464 | -73.77348 | 3019 ft | 263 kts | 311° |